sensor_id;sensor_type;location;lat;lon;timestamp;P1;durP1;ratioP1;P2;durP2;ratioP2
15198;SDS011;7700;48.654;9.070;2022-07-10T00:00:05;4.30;;;3.90;;
15198;SDS011;7700;48.654;9.070;2022-07-10T00:02:40;3.83;;;3.45;;
15198;SDS011;7700;48.654;9.070;2022-07-10T00:05:07;4.63;;;3.40;;
15198;SDS011;7700;48.654;9.070;2022-07-10T00:07:34;3.80;;;3.40;;
15198;SDS011;7700;48.654;9.070;2022-07-10T00:10:00;3.05;;;2.85;;
15198;SDS011;7700;48.654;9.070;2022-07-10T00:12:25;4.30;;;3.17;;
15198;SDS011;7700;48.654;9.070;2022-07-10T00:14:51;3.15;;;2.90;;
15198;SDS011;7700;48.654;9.070;2022-07-10T00:17:17;4.00;;;3.70;;
15198;SDS011;7700;48.654;9.070;2022-07-10T00:19:42;3.50;;;2.95;;
15198;SDS011;7700;48.654;9.070;2022-07-10T00:22:08;5.35;;;3.22;;
15198;SDS011;7700;48.654;9.070;2022-07-10T00:24:34;3.53;;;3.10;;
15198;SDS011;7700;48.654;9.070;2022-07-10T00:27:00;3.13;;;2.92;;
15198;SDS011;7700;48.654;9.070;2022-07-10T00:29:25;3.78;;;3.38;;
15198;SDS011;7700;48.654;9.070;2022-07-10T00:31:51;3.90;;;3.35;;
15198;SDS011;7700;48.654;9.070;2022-07-10T00:34:16;3.85;;;2.95;;
15198;SDS011;7700;48.654;9.070;2022-07-10T00:36:42;4.45;;;3.08;;
15198;SDS011;7700;48.654;9.070;2022-07-10T00:39:08;4.47;;;3.20;;
15198;SDS011;7700;48.654;9.070;2022-07-10T00:41:34;3.90;;;3.20;;
15198;SDS011;7700;48.654;9.070;2022-07-10T00:44:00;3.55;;;3.13;;
15198;SDS011;7700;48.654;9.070;2022-07-10T00:46:27;2.80;;;2.60;;
15198;SDS011;7700;48.654;9.070;2022-07-10T00:48:54;3.53;;;3.22;;
15198;SDS011;7700;48.654;9.070;2022-07-10T00:51:21;3.47;;;2.95;;
15198;SDS011;7700;48.654;9.070;2022-07-10T00:53:49;3.15;;;2.88;;
15198;SDS011;7700;48.654;9.070;2022-07-10T00:56:18;3.42;;;3.15;;
15198;SDS011;7700;48.654;9.070;2022-07-10T00:58:46;3.40;;;3.05;;
15198;SDS011;7700;48.654;9.070;2022-07-10T01:01:12;3.40;;;3.10;;
15198;SDS011;7700;48.654;9.070;2022-07-10T01:03:38;4.10;;;2.97;;
15198;SDS011;7700;48.654;9.070;2022-07-10T01:06:04;3.17;;;2.97;;
15198;SDS011;7700;48.654;9.070;2022-07-10T01:08:30;3.63;;;3.10;;
15198;SDS011;7700;48.654;9.070;2022-07-10T01:10:55;4.82;;;2.92;;
15198;SDS011;7700;48.654;9.070;2022-07-10T01:13:22;3.50;;;3.17;;
15198;SDS011;7700;48.654;9.070;2022-07-10T01:15:47;3.60;;;3.00;;
15198;SDS011;7700;48.654;9.070;2022-07-10T01:18:14;3.42;;;3.10;;
15198;SDS011;7700;48.654;9.070;2022-07-10T01:20:39;5.82;;;3.50;;
15198;SDS011;7700;48.654;9.070;2022-07-10T01:23:05;3.75;;;3.38;;
15198;SDS011;7700;48.654;9.070;2022-07-10T01:25:31;3.78;;;3.47;;
15198;SDS011;7700;48.654;9.070;2022-07-10T01:27:57;3.67;;;3.38;;
15198;SDS011;7700;48.654;9.070;2022-07-10T01:30:23;7.22;;;3.65;;
15198;SDS011;7700;48.654;9.070;2022-07-10T01:32:50;4.03;;;3.30;;
15198;SDS011;7700;48.654;9.070;2022-07-10T01:35:17;3.58;;;3.10;;
15198;SDS011;7700;48.654;9.070;2022-07-10T01:37:43;3.55;;;3.25;;
15198;SDS011;7700;48.654;9.070;2022-07-10T01:40:09;4.30;;;3.70;;
15198;SDS011;7700;48.654;9.070;2022-07-10T01:42:35;3.92;;;3.53;;
15198;SDS011;7700;48.654;9.070;2022-07-10T01:45:02;4.55;;;3.70;;
15198;SDS011;7700;48.654;9.070;2022-07-10T01:47:31;4.35;;;3.80;;
15198;SDS011;7700;48.654;9.070;2022-07-10T01:49:57;5.30;;;3.88;;
15198;SDS011;7700;48.654;9.070;2022-07-10T01:52:22;4.13;;;3.65;;
15198;SDS011;7700;48.654;9.070;2022-07-10T01:54:48;4.10;;;3.70;;
15198;SDS011;7700;48.654;9.070;2022-07-10T01:57:14;5.47;;;3.70;;
15198;SDS011;7700;48.654;9.070;2022-07-10T01:59:39;4.00;;;3.60;;
15198;SDS011;7700;48.654;9.070;2022-07-10T02:02:05;5.97;;;4.00;;
15198;SDS011;7700;48.654;9.070;2022-07-10T02:04:32;5.30;;;3.95;;
15198;SDS011;7700;48.654;9.070;2022-07-10T02:07:15;4.00;;;3.70;;
15198;SDS011;7700;48.654;9.070;2022-07-10T02:09:43;3.88;;;3.58;;
15198;SDS011;7700;48.654;9.070;2022-07-10T02:12:10;4.40;;;4.00;;
15198;SDS011;7700;48.654;9.070;2022-07-10T02:14:37;4.75;;;4.35;;
15198;SDS011;7700;48.654;9.070;2022-07-10T02:17:04;5.03;;;4.47;;
15198;SDS011;7700;48.654;9.070;2022-07-10T02:19:29;4.93;;;4.43;;
15198;SDS011;7700;48.654;9.070;2022-07-10T02:21:55;5.20;;;4.70;;
15198;SDS011;7700;48.654;9.070;2022-07-10T02:24:21;5.30;;;4.80;;
15198;SDS011;7700;48.654;9.070;2022-07-10T02:26:47;5.85;;;5.10;;
15198;SDS011;7700;48.654;9.070;2022-07-10T02:29:13;7.22;;;6.45;;
15198;SDS011;7700;48.654;9.070;2022-07-10T02:31:38;6.97;;;6.45;;
15198;SDS011;7700;48.654;9.070;2022-07-10T02:34:07;7.25;;;6.45;;
15198;SDS011;7700;48.654;9.070;2022-07-10T02:36:33;7.63;;;7.03;;
15198;SDS011;7700;48.654;9.070;2022-07-10T02:38:59;8.60;;;7.80;;
15198;SDS011;7700;48.654;9.070;2022-07-10T02:41:25;8.25;;;7.50;;
15198;SDS011;7700;48.654;9.070;2022-07-10T02:43:51;8.57;;;7.78;;
15198;SDS011;7700;48.654;9.070;2022-07-10T02:46:16;9.15;;;8.25;;
15198;SDS011;7700;48.654;9.070;2022-07-10T02:48:42;9.73;;;8.88;;
15198;SDS011;7700;48.654;9.070;2022-07-10T02:51:07;8.63;;;7.93;;
15198;SDS011;7700;48.654;9.070;2022-07-10T02:53:33;9.60;;;8.65;;
15198;SDS011;7700;48.654;9.070;2022-07-10T02:55:58;10.25;;;9.43;;
15198;SDS011;7700;48.654;9.070;2022-07-10T02:58:24;11.07;;;10.13;;
15198;SDS011;7700;48.654;9.070;2022-07-10T03:00:50;10.63;;;9.63;;
15198;SDS011;7700;48.654;9.070;2022-07-10T03:03:16;10.95;;;10.05;;
15198;SDS011;7700;48.654;9.070;2022-07-10T03:05:44;11.27;;;10.07;;
15198;SDS011;7700;48.654;9.070;2022-07-10T03:08:10;9.32;;;8.35;;
15198;SDS011;7700;48.654;9.070;2022-07-10T03:10:36;9.20;;;8.40;;
15198;SDS011;7700;48.654;9.070;2022-07-10T03:13:01;10.75;;;9.85;;
15198;SDS011;7700;48.654;9.070;2022-07-10T03:15:27;10.80;;;9.90;;
15198;SDS011;7700;48.654;9.070;2022-07-10T03:17:53;12.52;;;11.30;;
15198;SDS011;7700;48.654;9.070;2022-07-10T03:20:18;11.10;;;10.02;;
15198;SDS011;7700;48.654;9.070;2022-07-10T03:22:44;12.57;;;11.48;;
15198;SDS011;7700;48.654;9.070;2022-07-10T03:25:10;12.40;;;11.30;;
15198;SDS011;7700;48.654;9.070;2022-07-10T03:27:36;11.35;;;10.38;;
15198;SDS011;7700;48.654;9.070;2022-07-10T03:30:02;13.68;;;11.80;;
15198;SDS011;7700;48.654;9.070;2022-07-10T03:32:28;13.38;;;12.18;;
15198;SDS011;7700;48.654;9.070;2022-07-10T03:34:54;12.43;;;11.13;;
15198;SDS011;7700;48.654;9.070;2022-07-10T03:37:19;11.98;;;10.98;;
15198;SDS011;7700;48.654;9.070;2022-07-10T03:39:45;12.60;;;11.50;;
15198;SDS011;7700;48.654;9.070;2022-07-10T03:42:10;11.93;;;10.88;;
15198;SDS011;7700;48.654;9.070;2022-07-10T03:44:36;13.30;;;10.80;;
15198;SDS011;7700;48.654;9.070;2022-07-10T03:47:02;11.82;;;10.73;;
15198;SDS011;7700;48.654;9.070;2022-07-10T03:49:27;12.27;;;11.07;;
15198;SDS011;7700;48.654;9.070;2022-07-10T03:51:53;10.80;;;9.75;;
15198;SDS011;7700;48.654;9.070;2022-07-10T03:54:19;10.57;;;9.68;;
15198;SDS011;7700;48.654;9.070;2022-07-10T03:56:44;10.93;;;9.93;;
15198;SDS011;7700;48.654;9.070;2022-07-10T03:59:28;10.30;;;9.40;;
15198;SDS011;7700;48.654;9.070;2022-07-10T04:01:54;11.20;;;10.20;;
15198;SDS011;7700;48.654;9.070;2022-07-10T04:04:20;12.60;;;10.18;;
15198;SDS011;7700;48.654;9.070;2022-07-10T04:06:45;11.18;;;10.10;;
15198;SDS011;7700;48.654;9.070;2022-07-10T04:09:11;10.48;;;9.52;;
15198;SDS011;7700;48.654;9.070;2022-07-10T04:11:37;10.50;;;9.50;;
15198;SDS011;7700;48.654;9.070;2022-07-10T04:14:03;10.40;;;9.35;;
15198;SDS011;7700;48.654;9.070;2022-07-10T04:16:28;9.70;;;8.40;;
15198;SDS011;7700;48.654;9.070;2022-07-10T04:18:54;9.30;;;8.50;;
15198;SDS011;7700;48.654;9.070;2022-07-10T04:21:19;11.60;;;8.90;;
15198;SDS011;7700;48.654;9.070;2022-07-10T04:23:45;9.60;;;8.68;;
15198;SDS011;7700;48.654;9.070;2022-07-10T04:26:10;9.63;;;8.60;;
15198;SDS011;7700;48.654;9.070;2022-07-10T04:28:36;9.43;;;8.50;;
15198;SDS011;7700;48.654;9.070;2022-07-10T04:31:01;8.15;;;7.35;;
15198;SDS011;7700;48.654;9.070;2022-07-10T04:33:27;8.40;;;7.68;;
15198;SDS011;7700;48.654;9.070;2022-07-10T04:35:52;8.13;;;6.30;;
15198;SDS011;7700;48.654;9.070;2022-07-10T04:38:18;8.10;;;7.20;;
15198;SDS011;7700;48.654;9.070;2022-07-10T04:40:43;6.82;;;6.30;;
15198;SDS011;7700;48.654;9.070;2022-07-10T04:43:09;7.13;;;6.50;;
15198;SDS011;7700;48.654;9.070;2022-07-10T04:45:37;6.65;;;6.05;;
15198;SDS011;7700;48.654;9.070;2022-07-10T04:48:06;6.38;;;5.78;;
15198;SDS011;7700;48.654;9.070;2022-07-10T04:50:32;7.35;;;6.00;;
15198;SDS011;7700;48.654;9.070;2022-07-10T04:52:57;7.15;;;6.05;;
15198;SDS011;7700;48.654;9.070;2022-07-10T04:55:23;6.45;;;5.85;;
15198;SDS011;7700;48.654;9.070;2022-07-10T04:57:48;6.25;;;5.75;;
15198;SDS011;7700;48.654;9.070;2022-07-10T05:00:14;6.65;;;5.68;;
15198;SDS011;7700;48.654;9.070;2022-07-10T05:02:40;6.70;;;5.32;;
15198;SDS011;7700;48.654;9.070;2022-07-10T05:05:06;6.65;;;5.07;;
15198;SDS011;7700;48.654;9.070;2022-07-10T05:07:33;7.97;;;5.43;;
15198;SDS011;7700;48.654;9.070;2022-07-10T05:09:58;5.28;;;4.70;;
15198;SDS011;7700;48.654;9.070;2022-07-10T05:12:24;6.38;;;5.18;;
15198;SDS011;7700;48.654;9.070;2022-07-10T05:14:49;5.10;;;4.60;;
15198;SDS011;7700;48.654;9.070;2022-07-10T05:17:15;5.30;;;4.75;;
15198;SDS011;7700;48.654;9.070;2022-07-10T05:19:40;9.73;;;5.50;;
15198;SDS011;7700;48.654;9.070;2022-07-10T05:22:06;5.20;;;4.70;;
15198;SDS011;7700;48.654;9.070;2022-07-10T05:24:32;7.38;;;4.18;;
15198;SDS011;7700;48.654;9.070;2022-07-10T05:26:58;5.28;;;4.22;;
15198;SDS011;7700;48.654;9.070;2022-07-10T05:29:23;4.68;;;4.00;;
15198;SDS011;7700;48.654;9.070;2022-07-10T05:31:49;4.72;;;3.75;;
15198;SDS011;7700;48.654;9.070;2022-07-10T05:34:14;4.97;;;3.22;;
15198;SDS011;7700;48.654;9.070;2022-07-10T05:36:40;4.25;;;3.80;;
15198;SDS011;7700;48.654;9.070;2022-07-10T05:39:05;7.07;;;3.67;;
15198;SDS011;7700;48.654;9.070;2022-07-10T05:41:31;4.60;;;3.30;;
15198;SDS011;7700;48.654;9.070;2022-07-10T05:43:57;5.05;;;4.03;;
15198;SDS011;7700;48.654;9.070;2022-07-10T05:46:24;4.40;;;3.90;;
15198;SDS011;7700;48.654;9.070;2022-07-10T05:48:50;4.18;;;3.80;;
15198;SDS011;7700;48.654;9.070;2022-07-10T05:51:15;5.20;;;4.25;;
15198;SDS011;7700;48.654;9.070;2022-07-10T05:53:41;4.05;;;3.65;;
15198;SDS011;7700;48.654;9.070;2022-07-10T05:56:06;4.70;;;3.70;;
15198;SDS011;7700;48.654;9.070;2022-07-10T05:58:32;4.13;;;3.53;;
15198;SDS011;7700;48.654;9.070;2022-07-10T06:00:57;4.05;;;3.08;;
15198;SDS011;7700;48.654;9.070;2022-07-10T06:03:23;5.78;;;3.25;;
15198;SDS011;7700;48.654;9.070;2022-07-10T06:05:49;3.70;;;3.25;;
15198;SDS011;7700;48.654;9.070;2022-07-10T06:08:14;4.05;;;2.95;;
15198;SDS011;7700;48.654;9.070;2022-07-10T06:10:40;4.43;;;2.85;;
15198;SDS011;7700;48.654;9.070;2022-07-10T06:13:07;7.32;;;3.22;;
15198;SDS011;7700;48.654;9.070;2022-07-10T06:15:32;3.67;;;2.67;;
15198;SDS011;7700;48.654;9.070;2022-07-10T06:17:59;3.78;;;2.45;;
15198;SDS011;7700;48.654;9.070;2022-07-10T06:20:27;3.45;;;2.80;;
15198;SDS011;7700;48.654;9.070;2022-07-10T06:22:57;2.97;;;2.67;;
15198;SDS011;7700;48.654;9.070;2022-07-10T06:25:25;3.10;;;2.47;;
15198;SDS011;7700;48.654;9.070;2022-07-10T06:27:51;3.95;;;2.53;;
15198;SDS011;7700;48.654;9.070;2022-07-10T06:30:16;3.83;;;2.22;;
15198;SDS011;7700;48.654;9.070;2022-07-10T06:32:42;4.05;;;2.30;;
15198;SDS011;7700;48.654;9.070;2022-07-10T06:35:09;4.25;;;2.38;;
15198;SDS011;7700;48.654;9.070;2022-07-10T06:37:35;3.95;;;2.30;;
15198;SDS011;7700;48.654;9.070;2022-07-10T06:40:01;2.65;;;2.28;;
15198;SDS011;7700;48.654;9.070;2022-07-10T06:42:26;3.65;;;2.42;;
15198;SDS011;7700;48.654;9.070;2022-07-10T06:44:52;2.65;;;2.10;;
15198;SDS011;7700;48.654;9.070;2022-07-10T06:47:18;2.40;;;2.20;;
15198;SDS011;7700;48.654;9.070;2022-07-10T06:50:05;3.70;;;2.28;;
15198;SDS011;7700;48.654;9.070;2022-07-10T06:52:33;3.80;;;2.05;;
15198;SDS011;7700;48.654;9.070;2022-07-10T06:54:59;3.38;;;2.47;;
15198;SDS011;7700;48.654;9.070;2022-07-10T06:57:29;2.83;;;2.22;;
15198;SDS011;7700;48.654;9.070;2022-07-10T06:59:55;4.70;;;2.60;;
15198;SDS011;7700;48.654;9.070;2022-07-10T07:02:21;3.00;;;1.80;;
15198;SDS011;7700;48.654;9.070;2022-07-10T07:04:47;6.32;;;2.22;;
15198;SDS011;7700;48.654;9.070;2022-07-10T07:07:13;2.97;;;1.90;;
15198;SDS011;7700;48.654;9.070;2022-07-10T07:09:39;1.90;;;1.70;;
15198;SDS011;7700;48.654;9.070;2022-07-10T07:12:05;3.58;;;1.80;;
15198;SDS011;7700;48.654;9.070;2022-07-10T07:14:31;2.22;;;1.85;;
15198;SDS011;7700;48.654;9.070;2022-07-10T07:16:57;3.45;;;2.00;;
15198;SDS011;7700;48.654;9.070;2022-07-10T07:19:26;6.03;;;2.38;;
15198;SDS011;7700;48.654;9.070;2022-07-10T07:21:59;2.58;;;1.80;;
15198;SDS011;7700;48.654;9.070;2022-07-10T07:24:43;5.80;;;2.20;;
15198;SDS011;7700;48.654;9.070;2022-07-10T07:27:10;5.03;;;2.15;;
15198;SDS011;7700;48.654;9.070;2022-07-10T07:29:36;2.85;;;2.00;;
15198;SDS011;7700;48.654;9.070;2022-07-10T07:32:02;2.85;;;1.67;;
15198;SDS011;7700;48.654;9.070;2022-07-10T07:34:28;1.55;;;1.45;;
15198;SDS011;7700;48.654;9.070;2022-07-10T07:36:54;3.75;;;1.42;;
15198;SDS011;7700;48.654;9.070;2022-07-10T07:39:19;2.30;;;1.50;;
15198;SDS011;7700;48.654;9.070;2022-07-10T07:41:45;3.38;;;1.65;;
15198;SDS011;7700;48.654;9.070;2022-07-10T07:44:10;3.67;;;1.98;;
15198;SDS011;7700;48.654;9.070;2022-07-10T07:46:37;2.00;;;1.80;;
15198;SDS011;7700;48.654;9.070;2022-07-10T07:49:02;2.38;;;1.52;;
15198;SDS011;7700;48.654;9.070;2022-07-10T07:51:28;3.58;;;2.00;;
15198;SDS011;7700;48.654;9.070;2022-07-10T07:53:53;3.65;;;1.40;;
15198;SDS011;7700;48.654;9.070;2022-07-10T07:56:19;2.00;;;1.48;;
15198;SDS011;7700;48.654;9.070;2022-07-10T07:58:44;5.03;;;1.52;;
15198;SDS011;7700;48.654;9.070;2022-07-10T08:01:10;1.92;;;1.45;;
15198;SDS011;7700;48.654;9.070;2022-07-10T08:03:35;3.42;;;1.60;;
15198;SDS011;7700;48.654;9.070;2022-07-10T08:06:01;2.95;;;1.50;;
15198;SDS011;7700;48.654;9.070;2022-07-10T08:08:26;3.35;;;1.60;;
15198;SDS011;7700;48.654;9.070;2022-07-10T08:10:52;2.47;;;1.60;;
15198;SDS011;7700;48.654;9.070;2022-07-10T08:13:18;2.10;;;1.23;;
15198;SDS011;7700;48.654;9.070;2022-07-10T08:15:43;4.28;;;1.30;;
15198;SDS011;7700;48.654;9.070;2022-07-10T08:18:09;3.38;;;1.50;;
15198;SDS011;7700;48.654;9.070;2022-07-10T08:20:35;3.28;;;1.52;;
15198;SDS011;7700;48.654;9.070;2022-07-10T08:23:00;4.65;;;1.65;;
15198;SDS011;7700;48.654;9.070;2022-07-10T08:25:27;3.70;;;2.13;;
15198;SDS011;7700;48.654;9.070;2022-07-10T08:27:54;5.07;;;1.65;;
15198;SDS011;7700;48.654;9.070;2022-07-10T08:30:25;3.92;;;1.63;;
15198;SDS011;7700;48.654;9.070;2022-07-10T08:32:50;2.67;;;1.60;;
15198;SDS011;7700;48.654;9.070;2022-07-10T08:35:16;2.10;;;1.85;;
15198;SDS011;7700;48.654;9.070;2022-07-10T08:37:42;3.00;;;1.27;;
15198;SDS011;7700;48.654;9.070;2022-07-10T08:40:08;4.80;;;1.60;;
15198;SDS011;7700;48.654;9.070;2022-07-10T08:42:35;3.70;;;1.48;;
15198;SDS011;7700;48.654;9.070;2022-07-10T08:45:01;1.55;;;1.17;;
15198;SDS011;7700;48.654;9.070;2022-07-10T08:47:26;1.50;;;1.08;;
15198;SDS011;7700;48.654;9.070;2022-07-10T08:53:22;1.75;;;1.20;;
15198;SDS011;7700;48.654;9.070;2022-07-10T08:55:53;2.78;;;1.20;;
15198;SDS011;7700;48.654;9.070;2022-07-10T08:58:19;3.15;;;1.30;;
15198;SDS011;7700;48.654;9.070;2022-07-10T09:00:46;3.55;;;1.20;;
15198;SDS011;7700;48.654;9.070;2022-07-10T09:03:12;2.97;;;1.50;;
15198;SDS011;7700;48.654;9.070;2022-07-10T09:05:37;2.05;;;1.30;;
15198;SDS011;7700;48.654;9.070;2022-07-10T09:08:03;1.50;;;1.40;;
15198;SDS011;7700;48.654;9.070;2022-07-10T09:10:29;2.47;;;1.42;;
15198;SDS011;7700;48.654;9.070;2022-07-10T09:12:58;3.65;;;1.70;;
15198;SDS011;7700;48.654;9.070;2022-07-10T09:15:27;2.17;;;1.35;;
15198;SDS011;7700;48.654;9.070;2022-07-10T09:18:01;1.23;;;1.10;;
15198;SDS011;7700;48.654;9.070;2022-07-10T09:20:32;2.72;;;1.58;;
15198;SDS011;7700;48.654;9.070;2022-07-10T09:22:59;2.63;;;1.48;;
15198;SDS011;7700;48.654;9.070;2022-07-10T09:25:42;5.25;;;1.88;;
15198;SDS011;7700;48.654;9.070;2022-07-10T09:28:07;3.72;;;1.40;;
15198;SDS011;7700;48.654;9.070;2022-07-10T09:33:19;2.83;;;1.50;;
15198;SDS011;7700;48.654;9.070;2022-07-10T09:44:03;2.90;;;1.45;;
15198;SDS011;7700;48.654;9.070;2022-07-10T09:49:03;2.83;;;1.50;;
15198;SDS011;7700;48.654;9.070;2022-07-10T09:51:33;3.17;;;1.77;;
15198;SDS011;7700;48.654;9.070;2022-07-10T09:54:01;4.85;;;1.98;;
15198;SDS011;7700;48.654;9.070;2022-07-10T09:56:28;4.88;;;2.45;;
15198;SDS011;7700;48.654;9.070;2022-07-10T09:59:00;2.67;;;2.00;;
15198;SDS011;7700;48.654;9.070;2022-07-10T10:03:34;4.15;;;2.10;;
15198;SDS011;7700;48.654;9.070;2022-07-10T10:06:16;2.10;;;1.85;;
15198;SDS011;7700;48.654;9.070;2022-07-10T10:08:44;3.20;;;1.55;;
15198;SDS011;7700;48.654;9.070;2022-07-10T10:11:20;2.55;;;1.60;;
15198;SDS011;7700;48.654;9.070;2022-07-10T10:13:46;2.72;;;1.60;;
15198;SDS011;7700;48.654;9.070;2022-07-10T10:16:13;3.30;;;1.30;;
15198;SDS011;7700;48.654;9.070;2022-07-10T10:18:39;3.90;;;1.40;;
15198;SDS011;7700;48.654;9.070;2022-07-10T10:21:27;2.05;;;1.38;;
15198;SDS011;7700;48.654;9.070;2022-07-10T10:23:54;2.42;;;1.38;;
15198;SDS011;7700;48.654;9.070;2022-07-10T10:26:23;2.50;;;1.50;;
15198;SDS011;7700;48.654;9.070;2022-07-10T10:28:53;1.42;;;1.33;;
15198;SDS011;7700;48.654;9.070;2022-07-10T10:31:21;3.83;;;1.75;;
15198;SDS011;7700;48.654;9.070;2022-07-10T10:33:47;1.77;;;1.40;;
15198;SDS011;7700;48.654;9.070;2022-07-10T10:36:42;3.38;;;1.90;;
15198;SDS011;7700;48.654;9.070;2022-07-10T10:39:16;3.58;;;1.85;;
15198;SDS011;7700;48.654;9.070;2022-07-10T10:41:47;1.38;;;1.27;;
15198;SDS011;7700;48.654;9.070;2022-07-10T10:47:03;2.78;;;1.48;;
15198;SDS011;7700;48.654;9.070;2022-07-10T10:49:50;1.83;;;1.20;;
15198;SDS011;7700;48.654;9.070;2022-07-10T10:52:17;2.97;;;1.25;;
15198;SDS011;7700;48.654;9.070;2022-07-10T11:00:03;1.55;;;1.20;;
15198;SDS011;7700;48.654;9.070;2022-07-10T11:02:32;2.35;;;1.60;;
15198;SDS011;7700;48.654;9.070;2022-07-10T11:07:52;2.70;;;1.48;;
15198;SDS011;7700;48.654;9.070;2022-07-10T11:10:38;2.55;;;1.27;;
15198;SDS011;7700;48.654;9.070;2022-07-10T11:13:11;1.73;;;1.10;;
15198;SDS011;7700;48.654;9.070;2022-07-10T11:15:49;1.67;;;1.00;;
15198;SDS011;7700;48.654;9.070;2022-07-10T11:18:18;2.45;;;1.60;;
15198;SDS011;7700;48.654;9.070;2022-07-10T11:20:51;2.40;;;1.40;;
15198;SDS011;7700;48.654;9.070;2022-07-10T11:29:26;1.25;;;1.15;;
15198;SDS011;7700;48.654;9.070;2022-07-10T11:31:54;1.67;;;1.23;;
15198;SDS011;7700;48.654;9.070;2022-07-10T11:34:21;3.38;;;1.13;;
15198;SDS011;7700;48.654;9.070;2022-07-10T11:36:47;3.08;;;1.45;;
15198;SDS011;7700;48.654;9.070;2022-07-10T11:39:13;2.08;;;1.38;;
15198;SDS011;7700;48.654;9.070;2022-07-10T11:41:42;2.88;;;1.38;;
15198;SDS011;7700;48.654;9.070;2022-07-10T11:44:15;3.10;;;1.20;;
15198;SDS011;7700;48.654;9.070;2022-07-10T11:46:42;2.17;;;1.10;;
15198;SDS011;7700;48.654;9.070;2022-07-10T11:49:10;1.55;;;1.33;;
15198;SDS011;7700;48.654;9.070;2022-07-10T11:51:38;2.03;;;1.40;;
15198;SDS011;7700;48.654;9.070;2022-07-10T11:56:38;2.25;;;1.13;;
15198;SDS011;7700;48.654;9.070;2022-07-10T11:59:10;2.03;;;1.13;;
15198;SDS011;7700;48.654;9.070;2022-07-10T12:01:47;2.38;;;1.20;;
15198;SDS011;7700;48.654;9.070;2022-07-10T12:04:14;2.80;;;1.30;;
15198;SDS011;7700;48.654;9.070;2022-07-10T12:06:42;2.72;;;1.08;;
15198;SDS011;7700;48.654;9.070;2022-07-10T12:09:10;2.30;;;1.15;;
15198;SDS011;7700;48.654;9.070;2022-07-10T12:11:38;2.50;;;1.20;;
15198;SDS011;7700;48.654;9.070;2022-07-10T12:14:23;1.50;;;0.90;;
15198;SDS011;7700;48.654;9.070;2022-07-10T12:16:50;1.88;;;0.93;;
15198;SDS011;7700;48.654;9.070;2022-07-10T12:19:22;2.63;;;1.20;;
15198;SDS011;7700;48.654;9.070;2022-07-10T12:21:49;1.45;;;0.95;;
15198;SDS011;7700;48.654;9.070;2022-07-10T12:24:17;2.63;;;0.93;;
15198;SDS011;7700;48.654;9.070;2022-07-10T12:26:46;2.08;;;1.05;;
15198;SDS011;7700;48.654;9.070;2022-07-10T12:29:23;1.38;;;0.77;;
15198;SDS011;7700;48.654;9.070;2022-07-10T12:31:49;1.60;;;0.88;;
15198;SDS011;7700;48.654;9.070;2022-07-10T12:34:17;2.25;;;1.58;;
15198;SDS011;7700;48.654;9.070;2022-07-10T12:36:47;5.03;;;2.10;;
15198;SDS011;7700;48.654;9.070;2022-07-10T12:39:15;3.63;;;3.20;;
15198;SDS011;7700;48.654;9.070;2022-07-10T12:42:03;2.45;;;1.35;;
15198;SDS011;7700;48.654;9.070;2022-07-10T12:44:32;2.25;;;0.80;;
15198;SDS011;7700;48.654;9.070;2022-07-10T12:47:09;0.98;;;0.68;;
15198;SDS011;7700;48.654;9.070;2022-07-10T12:49:55;1.55;;;0.70;;
15198;SDS011;7700;48.654;9.070;2022-07-10T12:52:29;1.10;;;0.90;;
15198;SDS011;7700;48.654;9.070;2022-07-10T12:55:09;2.10;;;0.82;;
15198;SDS011;7700;48.654;9.070;2022-07-10T13:00:19;2.72;;;1.00;;
15198;SDS011;7700;48.654;9.070;2022-07-10T13:03:03;2.58;;;0.63;;
15198;SDS011;7700;48.654;9.070;2022-07-10T13:05:34;1.98;;;0.75;;
15198;SDS011;7700;48.654;9.070;2022-07-10T13:10:35;1.83;;;1.00;;
15198;SDS011;7700;48.654;9.070;2022-07-10T13:13:01;1.10;;;0.55;;
15198;SDS011;7700;48.654;9.070;2022-07-10T13:15:27;1.70;;;0.80;;
15198;SDS011;7700;48.654;9.070;2022-07-10T13:17:54;1.60;;;0.80;;
15198;SDS011;7700;48.654;9.070;2022-07-10T13:20:20;3.05;;;1.38;;
15198;SDS011;7700;48.654;9.070;2022-07-10T13:22:46;1.20;;;0.63;;
15198;SDS011;7700;48.654;9.070;2022-07-10T13:25:11;4.20;;;0.82;;
15198;SDS011;7700;48.654;9.070;2022-07-10T13:27:37;1.08;;;0.90;;
15198;SDS011;7700;48.654;9.070;2022-07-10T13:30:04;1.58;;;0.70;;
15198;SDS011;7700;48.654;9.070;2022-07-10T13:32:31;1.92;;;0.70;;
15198;SDS011;7700;48.654;9.070;2022-07-10T13:34:56;2.28;;;0.60;;
15198;SDS011;7700;48.654;9.070;2022-07-10T13:37:22;1.85;;;0.50;;
15198;SDS011;7700;48.654;9.070;2022-07-10T13:39:48;2.00;;;0.70;;
15198;SDS011;7700;48.654;9.070;2022-07-10T13:42:13;2.17;;;0.60;;
15198;SDS011;7700;48.654;9.070;2022-07-10T13:44:39;1.15;;;0.50;;
15198;SDS011;7700;48.654;9.070;2022-07-10T13:47:04;1.58;;;0.75;;
15198;SDS011;7700;48.654;9.070;2022-07-10T13:49:30;1.98;;;0.65;;
15198;SDS011;7700;48.654;9.070;2022-07-10T13:51:57;1.63;;;1.05;;
15198;SDS011;7700;48.654;9.070;2022-07-10T13:54:23;1.02;;;0.57;;
15198;SDS011;7700;48.654;9.070;2022-07-10T13:56:48;1.05;;;0.50;;
15198;SDS011;7700;48.654;9.070;2022-07-10T13:59:14;2.08;;;0.70;;
15198;SDS011;7700;48.654;9.070;2022-07-10T14:01:40;3.97;;;0.75;;
15198;SDS011;7700;48.654;9.070;2022-07-10T14:04:05;1.25;;;0.57;;
15198;SDS011;7700;48.654;9.070;2022-07-10T14:06:31;1.00;;;0.40;;
15198;SDS011;7700;48.654;9.070;2022-07-10T14:08:57;6.78;;;1.00;;
15198;SDS011;7700;48.654;9.070;2022-07-10T14:11:23;1.20;;;0.80;;
15198;SDS011;7700;48.654;9.070;2022-07-10T14:13:48;1.15;;;0.77;;
15198;SDS011;7700;48.654;9.070;2022-07-10T14:16:14;1.17;;;0.43;;
15198;SDS011;7700;48.654;9.070;2022-07-10T14:18:39;1.58;;;0.70;;
15198;SDS011;7700;48.654;9.070;2022-07-10T14:21:09;0.65;;;0.60;;
15198;SDS011;7700;48.654;9.070;2022-07-10T14:23:39;2.38;;;0.80;;
15198;SDS011;7700;48.654;9.070;2022-07-10T14:26:07;1.70;;;0.60;;
15198;SDS011;7700;48.654;9.070;2022-07-10T14:28:33;1.52;;;0.50;;
15198;SDS011;7700;48.654;9.070;2022-07-10T14:31:00;2.72;;;0.57;;
15198;SDS011;7700;48.654;9.070;2022-07-10T14:33:28;1.95;;;0.52;;
15198;SDS011;7700;48.654;9.070;2022-07-10T14:35:55;1.77;;;0.73;;
15198;SDS011;7700;48.654;9.070;2022-07-10T14:38:21;2.67;;;0.57;;
15198;SDS011;7700;48.654;9.070;2022-07-10T14:40:47;1.77;;;0.70;;
15198;SDS011;7700;48.654;9.070;2022-07-10T14:43:12;1.90;;;0.60;;
15198;SDS011;7700;48.654;9.070;2022-07-10T14:45:38;1.80;;;0.50;;
15198;SDS011;7700;48.654;9.070;2022-07-10T14:48:03;0.68;;;0.50;;
15198;SDS011;7700;48.654;9.070;2022-07-10T14:50:29;1.05;;;0.65;;
15198;SDS011;7700;48.654;9.070;2022-07-10T14:52:55;2.15;;;0.80;;
15198;SDS011;7700;48.654;9.070;2022-07-10T14:55:21;0.85;;;0.55;;
15198;SDS011;7700;48.654;9.070;2022-07-10T14:57:47;2.05;;;0.70;;
15198;SDS011;7700;48.654;9.070;2022-07-10T15:00:14;1.92;;;0.98;;
15198;SDS011;7700;48.654;9.070;2022-07-10T15:02:39;2.97;;;0.70;;
15198;SDS011;7700;48.654;9.070;2022-07-10T15:05:05;2.30;;;0.60;;
15198;SDS011;7700;48.654;9.070;2022-07-10T15:07:31;1.58;;;0.80;;
15198;SDS011;7700;48.654;9.070;2022-07-10T15:09:56;1.85;;;0.60;;
15198;SDS011;7700;48.654;9.070;2022-07-10T15:12:22;1.25;;;0.57;;
15198;SDS011;7700;48.654;9.070;2022-07-10T15:14:48;4.10;;;0.98;;
15198;SDS011;7700;48.654;9.070;2022-07-10T15:17:13;1.75;;;0.73;;
15198;SDS011;7700;48.654;9.070;2022-07-10T15:19:39;1.23;;;0.55;;
15198;SDS011;7700;48.654;9.070;2022-07-10T15:22:05;1.27;;;0.50;;
15198;SDS011;7700;48.654;9.070;2022-07-10T15:24:30;1.63;;;0.70;;
15198;SDS011;7700;48.654;9.070;2022-07-10T15:26:56;2.85;;;0.68;;
15198;SDS011;7700;48.654;9.070;2022-07-10T15:29:22;2.35;;;0.75;;
15198;SDS011;7700;48.654;9.070;2022-07-10T15:31:50;1.30;;;0.50;;
15198;SDS011;7700;48.654;9.070;2022-07-10T15:34:16;2.65;;;0.55;;
15198;SDS011;7700;48.654;9.070;2022-07-10T15:36:41;1.15;;;0.70;;
15198;SDS011;7700;48.654;9.070;2022-07-10T15:39:07;4.75;;;0.60;;
15198;SDS011;7700;48.654;9.070;2022-07-10T15:41:34;1.77;;;0.77;;
15198;SDS011;7700;48.654;9.070;2022-07-10T15:44:00;1.52;;;0.95;;